Time;durP1;ratioP1;P1;durP2;ratioP2;P2;SDS_P1;SDS_P2;PMS_P1;PMS_P2;Temp;Humidity;BMP_temperature;BMP_pressure;BME280_temperature;BME280_humidity;BME280_pressure;Samples;Min_cycle;Max_cycle;Signal;HPM_P1;HPM_P2
2022/12/06 00:00:48;;;;;;;2.77;2.60;;;;;;;9.04;100.00;83.94;5051898;28;20200;-63
2022/12/06 00:03:14;;;;;;;2.90;2.70;;;;;;;9.08;100.00;-234.56;5052026;28;20189;-62
2022/12/06 00:05:41;;;;;;;5.13;3.10;;;;;;;9.09;100.00;84.22;5052050;28;20196;-64
2022/12/06 00:08:08;;;;;;;5.17;2.67;;;;;;;9.10;100.00;84.28;5052009;28;20189;-63
2022/12/06 00:10:37;;;;;;;3.10;2.90;;;;;;;8.84;100.00;-235.75;5052263;28;20197;-62
2022/12/06 00:13:04;;;;;;;2.90;2.70;;;;;;;8.92;100.00;83.31;5051939;28;20185;-63
2022/12/06 00:15:35;;;;;;;4.20;2.70;;;;;;;8.69;100.00;-1828.69;5051864;28;20204;-63
2022/12/06 00:18:02;;;;;;;2.50;2.40;;;;;;;8.90;100.00;-3101.94;5051628;28;20215;-63
2022/12/06 00:20:29;;;;;;;2.83;2.63;;;;;;;8.99;100.00;-2146.56;5052086;28;20556;-63
2022/12/06 00:22:56;;;;;;;4.03;2.90;;;;;;;9.08;100.00;-1509.25;5051686;28;20276;-62
2022/12/06 00:25:23;;;;;;;6.63;2.50;;;;;;;9.09;100.00;-553.28;5051656;28;20188;-63
2022/12/06 00:27:52;;;;;;;3.87;2.57;;;;;;;9.13;100.00;-553.09;5051917;28;20652;-63
2022/12/06 00:30:19;;;;;;;2.90;2.70;;;;;;;9.11;100.00;-553.19;5051740;28;20538;-63
2022/12/06 00:32:45;;;;;;;2.63;2.53;;;;;;;9.09;100.00;84.19;5051783;28;20192;-64
2022/12/06 00:35:12;;;;;;;4.33;2.97;;;;;;;9.05;100.00;-872.13;5051608;28;20205;-63
2022/12/06 00:37:39;;;;;;;2.83;2.70;;;;;;;9.08;100.00;-234.56;5051967;28;20656;-63
2022/12/06 00:40:07;;;;;;;2.70;2.60;;;;;;;9.24;100.00;-871.41;5051428;28;20185;-63
2022/12/06 00:42:34;;;;;;;3.23;2.93;;;;;;;9.23;100.00;403.78;5051472;28;20194;-63
2022/12/06 00:45:02;;;;;;;6.33;2.27;;;;;;;9.24;100.00;403.84;5051693;28;20185;-64
2022/12/06 00:47:29;;;;;;;2.77;2.57;;;;;;;9.29;100.00;404.16;5051696;28;20688;-63
2022/12/06 00:49:56;;;;;;;3.03;2.47;;;;;;;9.18;100.00;403.53;5051417;28;20237;-64
2022/12/06 00:52:23;;;;;;;6.50;2.70;;;;;;;9.10;100.00;-871.94;5052020;28;20556;-62
2022/12/06 00:54:50;;;;;;;2.80;2.60;;;;;;;9.05;100.00;-1509.34;5051282;28;20190;-64
2022/12/06 00:57:17;;;;;;;3.17;2.87;;;;;;;8.92;100.00;-3738.63;5051195;28;20695;-63
2022/12/06 00:59:44;;;;;;;3.33;2.87;;;;;;;8.92;100.00;-3738.63;5051241;28;20261;-63
2022/12/06 01:02:12;;;;;;;3.57;2.97;;;;;;;8.91;100.00;-3738.59;5051110;28;20560;-63
2022/12/06 01:04:39;;;;;;;5.23;2.80;;;;;;;8.73;100.00;-4056.63;5051449;28;20632;-63
2022/12/06 01:07:05;;;;;;;3.63;3.30;;;;;;;8.59;100.00;-5010.63;5051109;28;20182;-63
2022/12/06 01:09:32;;;;;;;2.77;2.43;;;;;;;8.55;100.00;-5010.50;5051492;28;20624;-62
2022/12/06 01:11:59;;;;;;;3.37;3.17;;;;;;;8.76;100.00;-5329.19;5051114;28;20224;-63
2022/12/06 01:14:27;;;;;;;3.67;3.47;;;;;;;8.66;100.00;-4692.75;5054239;28;20185;-62
2022/12/06 01:16:53;;;;;;;3.83;3.27;;;;;;;8.59;100.00;-3738.31;5055166;28;20209;-64
2022/12/06 01:19:22;;;;;;;5.03;2.87;;;;;;;8.87;100.00;-3738.56;5055526;28;20636;-63
2022/12/06 01:21:49;;;;;;;15.83;3.33;;;;;;;8.94;100.00;-2465.09;5055180;28;20196;-63
2022/12/06 01:24:16;;;;;;;10.10;2.67;;;;;;;8.79;100.00;-1828.50;5055581;28;20193;-63
2022/12/06 01:26:42;;;;;;;2.97;2.60;;;;;;;8.84;100.00;-3101.94;5055374;28;20632;-63
2022/12/06 01:29:09;;;;;;;2.80;2.60;;;;;;;8.74;100.00;-2783.66;5055564;28;20205;-62
2022/12/06 01:31:36;;;;;;;3.97;3.10;;;;;;;8.62;100.00;-5010.72;5054937;28;20278;-63
2022/12/06 01:34:03;;;;;;;7.53;2.70;;;;;;;8.67;100.00;-4374.69;5055361;28;20185;-63
2022/12/06 01:36:32;;;;;;;2.83;2.47;;;;;;;8.53;100.00;-4374.41;5055298;28;20624;-62
2022/12/06 01:38:59;;;;;;;4.27;2.93;;;;;;;8.48;100.00;-3738.19;5055198;28;20668;-63
2022/12/06 01:41:27;;;;;;;2.80;2.60;;;;;;;8.45;100.00;-5010.19;5054889;28;20209;-63
2022/12/06 01:43:55;;;;;;;3.17;3.00;;;;;;;8.39;100.00;-4374.13;5054596;28;20196;-63
2022/12/06 01:46:28;;;;;;;3.30;2.63;;;;;;;8.36;100.00;-4056.06;5055279;28;20190;-63
2022/12/06 01:49:03;;;;;;;3.00;2.77;;;;;;;8.27;100.00;-4055.94;5054755;28;20666;-63
2022/12/06 01:51:31;;;;;;;3.37;3.07;;;;;;;8.23;100.00;-4373.81;5054540;28;20181;-63
2022/12/06 01:54:01;;;;;;;2.70;2.50;;;;;;;8.25;100.00;-4055.91;5054843;28;20620;-62
2022/12/06 01:56:28;;;;;;;2.53;2.40;;;;;;;8.26;100.00;-3420.00;5054994;28;20189;-63
2022/12/06 01:58:57;;;;;;;3.40;2.93;;;;;;;8.19;100.00;-2783.97;5054469;28;20217;-63
2022/12/06 02:01:27;;;;;;;2.70;2.60;;;;;;;8.33;100.00;-2147.66;5054403;28;20181;-62
2022/12/06 02:03:55;;;;;;;4.70;2.50;;;;;;;8.39;100.00;-1511.09;5054669;28;20191;-62
2022/12/06 02:06:23;;;;;;;5.20;2.27;;;;;;;8.33;100.00;-1193.00;5054438;28;20181;-63
2022/12/06 02:08:53;;;;;;;6.60;2.30;;;;;;;8.39;100.00;-556.22;5054235;28;20189;-63
2022/12/06 02:11:20;;;;;;;5.67;2.47;;;;;;;8.48;100.00;-1192.53;5054198;28;20189;-63
2022/12/06 02:13:47;;;;;;;3.17;2.90;;;;;;;8.43;100.00;-2147.47;5054451;28;20189;-64
2022/12/06 02:16:30;;;;;;;2.77;2.37;;;;;;;8.31;100.00;-2147.66;5054413;28;20622;-63
2022/12/06 02:19:05;;;;;;;2.60;2.40;;;;;;;8.32;100.00;-2465.78;5054225;28;20216;-63
2022/12/06 02:21:43;;;;;;;2.70;2.30;;;;;;;8.24;100.00;-2465.88;5054129;28;20192;-62
2022/12/06 02:24:43;;;;;;;5.23;2.10;;;;;;;8.33;100.00;-2465.78;5053821;28;20215;-63
2022/12/06 02:27:30;;;;;;;11.27;3.00;;;;;;;8.30;100.00;-3101.97;5054188;28;20232;-62
2022/12/06 02:30:17;;;;;;;2.00;1.90;;;;;;;8.28;100.00;-3101.97;5053855;28;20186;-63
2022/12/06 02:32:53;;;;;;;2.07;1.97;;;;;;;8.42;100.00;-1829.28;5054085;28;20189;-63
2022/12/06 02:35:28;;;;;;;3.17;2.20;;;;;;;8.41;100.00;-2465.69;5053712;28;20200;-62
2022/12/06 02:38:00;;;;;;;2.47;1.87;;;;;;;8.52;100.00;-2465.56;5053926;28;20219;-62
2022/12/06 02:40:34;;;;;;;2.27;1.80;;;;;;;8.57;100.00;-2465.53;5054030;28;20731;-63
2022/12/06 02:43:06;;;;;;;1.93;1.83;;;;;;;8.46;100.00;-3101.97;5054006;28;20189;-63
2022/12/06 02:45:39;;;;;;;3.50;1.80;;;;;;;8.44;100.00;-4374.22;5053527;28;20181;-63
2022/12/06 02:48:10;;;;;;;3.00;1.87;;;;;;;8.40;100.00;-4692.09;5053697;28;20571;-64
2022/12/06 02:50:41;;;;;;;2.80;1.77;;;;;;;8.44;100.00;-4374.22;5053735;28;20233;-63
2022/12/06 02:53:12;;;;;;;1.70;1.60;;;;;;;8.39;100.00;-3738.09;5053805;28;20193;-63
2022/12/06 02:55:41;;;;;;;1.80;1.70;;;;;;;8.43;100.00;-4692.19;5053408;28;20227;-63
2022/12/06 02:58:08;;;;;;;1.67;1.57;;;;;;;8.35;100.00;-4691.97;5053683;28;20576;-63
2022/12/06 03:00:37;;;;;;;2.20;1.57;;;;;;;8.64;100.00;-4692.72;5053839;28;20276;-63
2022/12/06 03:03:37;;;;;;;1.93;1.50;;;;;;;8.59;100.00;-4056.44;5053736;28;20201;-63
2022/12/06 03:06:51;;;;;;;4.63;1.50;;;;;;;8.72;100.00;-3738.44;5013640;28;20197;-63
2022/12/06 03:09:32;;;;;;;2.13;1.83;;;;;;;8.73;100.00;-2465.34;5026335;28;20664;-63
2022/12/06 03:12:06;;;;;;;4.40;1.70;;;;;;;8.79;100.00;-1510.06;5053310;28;20192;-63
2022/12/06 03:14:41;;;;;;;2.93;1.63;;;;;;;8.76;100.00;-1191.66;5053499;28;20636;-63
2022/12/06 03:17:16;;;;;;;1.57;1.47;;;;;;;8.93;100.00;-872.56;5053308;28;20609;-62
2022/12/06 03:19:45;;;;;;;2.37;1.40;;;;;;;8.99;100.00;83.69;5052992;28;20192;-62
2022/12/06 03:22:20;;;;;;;5.67;1.70;;;;;;;9.00;100.00;1358.84;5052949;28;20189;-64
2022/12/06 03:24:47;;;;;;;1.50;1.40;;;;;;;9.15;100.00;1997.88;5052790;28;20192;-63
2022/12/06 03:27:19;;;;;;;1.67;1.57;;;;;;;9.04;100.00;3911.13;5052982;28;20211;-63
2022/12/06 03:29:50;;;;;;;3.47;1.67;;;;;;;9.00;100.00;3591.53;5052751;28;20189;-64
2022/12/06 03:32:20;;;;;;;5.03;1.50;;;;;;;9.12;100.00;3911.97;5052794;28;20185;-64
2022/12/06 03:34:51;;;;;;;2.27;1.60;;;;;;;9.18;100.00;5509.06;5052510;28;20185;-64
2022/12/06 03:37:22;;;;;;;1.97;1.87;;;;;;;9.20;100.00;7106.41;5052243;28;20190;-63
2022/12/06 03:39:58;;;;;;;5.30;1.83;;;;;;;9.08;100.00;6465.59;5052618;28;20272;-63
2022/12/06 03:42:25;;;;;;;4.87;1.90;;;;;;;9.07;100.00;6465.50;5052716;28;20189;-63
2022/12/06 03:44:52;;;;;;;3.03;1.87;;;;;;;9.11;100.00;5827.31;5052404;28;20192;-63
2022/12/06 03:47:27;;;;;;;3.23;1.73;;;;;;;9.23;100.00;7426.38;5052537;28;20196;-64
2022/12/06 03:49:58;;;;;;;1.50;1.17;;;;;;;9.03;100.00;10619.16;5052334;28;20231;-63
2022/12/06 03:52:29;;;;;;;1.37;1.27;;;;;;;9.07;100.00;9980.44;5052465;28;20185;-63
2022/12/06 03:54:56;;;;;;;2.40;1.87;;;;;;;9.18;100.00;11262.16;5052200;28;20200;-63
2022/12/06 03:57:23;;;;;;;1.23;1.17;;;;;;;8.84;100.00;9336.38;5052392;28;20185;-63
2022/12/06 03:59:50;;;;;;;3.70;1.67;;;;;;;9.21;100.00;9663.66;5052171;28;20189;-63
2022/12/06 04:02:17;;;;;;;1.40;1.40;;;;;;;9.18;100.00;11902.13;5052211;28;20190;-63
2022/12/06 04:04:43;;;;;;;1.93;1.83;;;;;;;9.22;100.00;13503.28;5052382;28;20284;-63
2022/12/06 04:07:11;;;;;;;2.93;1.30;;;;;;;9.21;100.00;13823.03;5051965;28;20185;-63
2022/12/06 04:10:01;;;;;;;3.77;1.50;;;;;;;9.27;100.00;14465.13;5052237;28;20186;-63
2022/12/06 04:15:12;;;;;;;1.80;1.47;;;;;;;8.86;100.00;13813.59;5041924;28;20236;-63
2022/12/06 04:20:23;;;;;;;1.47;1.47;;;;;;;8.93;100.00;9338.19;5051960;28;20204;-63
2022/12/06 04:23:04;;;;;;;2.03;1.37;;;;;;;9.06;100.00;9021.31;5052104;28;20656;-62
2022/12/06 04:25:34;;;;;;;3.00;2.80;;;;;;;8.99;100.00;10618.13;5051969;28;20185;-63
2022/12/06 04:38:58;;;;;;;2.57;2.03;;;;;;;8.99;100.00;7741.84;5051652;28;20255;-63
2022/12/06 04:44:11;;;;;;;5.17;2.33;;;;;;;9.22;100.00;7745.84;5051884;28;20189;-63
2022/12/06 04:46:38;;;;;;;4.17;2.37;;;;;;;9.37;100.00;10306.78;5052004;28;20563;-63
2022/12/06 04:49:05;;;;;;;4.10;2.20;;;;;;;9.48;100.00;13510.22;5050915;28;20518;-63
2022/12/06 04:51:32;;;;;;;9.67;2.07;;;;;;;9.41;100.00;14469.31;5051827;28;20189;-63
2022/12/06 04:53:59;;;;;;;2.80;2.60;;;;;;;9.51;100.00;15112.88;5051617;28;20185;-63
2022/12/06 04:56:27;;;;;;;8.20;2.73;;;;;;;9.13;100.00;15101.81;5051440;28;20193;-63
2022/12/06 04:58:54;;;;;;;4.77;2.60;;;;;;;9.39;100.00;13187.56;5051481;28;20209;-64
2022/12/06 05:01:21;;;;;;;2.77;2.50;;;;;;;9.34;100.00;13506.41;5051271;28;20272;-63
2022/12/06 05:03:48;;;;;;;4.63;2.40;;;;;;;9.38;100.00;12547.13;5051439;28;20283;-63
2022/12/06 05:06:15;;;;;;;10.03;3.07;;;;;;;9.38;100.00;12227.00;5051469;28;20192;-63
2022/12/06 05:08:42;;;;;;;5.53;3.00;;;;;;;9.41;100.00;11907.66;5051359;28;20184;-63
2022/12/06 05:11:09;;;;;;;9.13;2.63;;;;;;;9.36;100.00;12546.59;5051278;28;20205;-64
2022/12/06 05:13:37;;;;;;;3.20;3.00;;;;;;;9.29;100.00;11584.59;5051476;28;20713;-63
2022/12/06 05:16:06;;;;;;;3.97;3.00;;;;;;;9.29;100.00;10305.00;5051359;28;20647;-63
2022/12/06 05:18:34;;;;;;;5.07;3.27;;;;;;;9.39;100.00;11267.09;5051324;28;20205;-64
2022/12/06 05:21:02;;;;;;;6.87;3.30;;;;;;;9.39;100.00;11267.09;5050929;28;20204;-64
2022/12/06 05:23:29;;;;;;;8.37;3.90;;;;;;;9.37;100.00;12226.75;5050970;28;20216;-63
2022/12/06 05:25:59;;;;;;;4.00;3.60;;;;;;;9.22;100.00;11263.09;5050909;28;20220;-63
2022/12/06 05:28:26;;;;;;;15.67;3.93;;;;;;;9.21;100.00;7426.09;5051579;28;20197;-65
2022/12/06 05:30:54;;;;;;;10.83;4.03;;;;;;;9.26;100.00;6787.81;5051290;28;20196;-63
2022/12/06 05:33:21;;;;;;;8.63;3.57;;;;;;;9.22;100.00;6787.25;5051292;28;20276;-63
2022/12/06 05:35:48;;;;;;;3.27;2.80;;;;;;;9.25;100.00;7426.72;5050941;28;20189;-62
2022/12/06 05:38:15;;;;;;;5.70;3.33;;;;;;;9.20;100.00;7106.41;5050878;28;20205;-63
2022/12/06 05:40:42;;;;;;;10.37;3.37;;;;;;;9.23;100.00;6787.41;5050890;28;20276;-64
2022/12/06 05:43:10;;;;;;;6.00;3.87;;;;;;;9.37;100.00;7109.28;5050893;28;20185;-63
2022/12/06 05:45:37;;;;;;;10.67;3.70;;;;;;;9.37;100.00;7428.88;5050914;28;20185;-63
2022/12/06 05:48:07;;;;;;;11.70;4.00;;;;;;;9.48;100.00;8389.97;5050640;28;20277;-64
2022/12/06 05:50:34;;;;;;;9.70;4.20;;;;;;;9.49;100.00;10309.41;5050608;28;20265;-64
2022/12/06 05:53:01;;;;;;;8.83;3.70;;;;;;;9.47;100.00;10308.97;5050462;28;20231;-64
2022/12/06 05:55:29;;;;;;;9.23;4.03;;;;;;;9.33;100.00;10625.69;5049192;28;20185;-64
2022/12/06 05:57:56;;;;;;;20.60;4.80;;;;;;;9.34;100.00;9666.38;5050506;28;20192;-64
2022/12/06 06:00:23;;;;;;;21.70;5.13;;;;;;;9.35;100.00;10306.22;5053063;28;20190;-64
2022/12/06 06:02:50;;;;;;;6.23;3.53;;;;;;;9.49;100.00;9669.53;5053086;28;20185;-63
2022/12/06 06:05:18;;;;;;;4.97;3.80;;;;;;;9.10;100.00;9341.69;5055046;28;20211;-63
2022/12/06 06:07:45;;;;;;;12.20;4.67;;;;;;;9.48;100.00;7750.47;5054315;28;20269;-62
2022/12/06 06:10:12;;;;;;;9.20;4.73;;;;;;;9.47;100.00;8389.69;5054839;28;20645;-63
2022/12/06 06:12:39;;;;;;;8.97;4.90;;;;;;;9.48;100.00;8389.97;5054206;28;20189;-61
2022/12/06 06:15:07;;;;;;;9.37;4.53;;;;;;;9.47;100.00;8709.56;5054242;28;20387;-64
2022/12/06 06:17:34;;;;;;;8.93;5.37;;;;;;;9.44;100.00;7749.69;5054037;28;20189;-62
2022/12/06 06:20:04;;;;;;;5.57;5.07;;;;;;;9.36;100.00;6150.47;5053777;28;20205;-64
2022/12/06 06:22:32;;;;;;;10.27;4.90;;;;;;;9.35;100.00;5830.84;5054208;28;20221;-63
2022/12/06 06:24:59;;;;;;;5.43;4.47;;;;;;;9.24;100.00;4871.09;5053801;28;20189;-63
2022/12/06 06:27:32;;;;;;;7.13;4.03;;;;;;;9.35;100.00;4233.94;5054042;28;20196;-62
2022/12/06 06:29:59;;;;;;;13.17;5.50;;;;;;;9.32;100.00;3595.06;5053854;28;20182;-63
2022/12/06 06:32:26;;;;;;;5.80;4.67;;;;;;;9.30;100.00;3914.00;5053931;28;20310;-63
2022/12/06 06:34:53;;;;;;;10.73;5.37;;;;;;;9.44;100.00;3915.69;5054333;28;20189;-60
2022/12/06 06:37:20;;;;;;;8.90;3.80;;;;;;;9.45;100.00;4873.91;5054075;28;20197;-60
2022/12/06 06:39:48;;;;;;;6.73;4.17;;;;;;;9.43;100.00;6151.53;5053618;28;20209;-60
2022/12/06 06:42:16;;;;;;;4.73;4.13;;;;;;;9.49;100.00;6152.44;5052810;28;20276;-60
2022/12/06 06:44:43;;;;;;;19.07;5.13;;;;;;;9.60;100.00;7432.84;5053521;28;20264;-61
2022/12/06 06:47:10;;;;;;;13.07;5.83;;;;;;;9.78;100.00;9995.47;5053581;28;20186;-63
2022/12/06 06:49:37;;;;;;;10.37;5.73;;;;;;;9.72;100.00;12875.91;5053699;28;20264;-63
2022/12/06 06:52:04;;;;;;;10.00;6.13;;;;;;;9.87;100.00;12879.84;5053387;28;20192;-62
2022/12/06 06:54:33;;;;;;;12.07;5.80;;;;;;;9.78;100.00;15441.53;5053479;28;20186;-63
2022/12/06 06:57:02;;;;;;;12.47;6.27;;;;;;;9.98;100.00;15447.47;5053212;28;20190;-62
2022/12/06 06:59:28;;;;;;;10.50;5.67;;;;;;;9.85;100.00;17688.81;5053280;28;20619;-62
2022/12/06 07:01:55;;;;;;;5.73;5.23;;;;;;;9.64;100.00;14796.41;5053390;28;20199;-63
2022/12/06 07:04:22;;;;;;;13.43;7.37;;;;;;;9.73;100.00;11595.06;5053016;28;20212;-63
2022/12/06 07:06:49;;;;;;;7.33;4.93;;;;;;;9.53;100.00;12230.66;5053018;28;20198;-62
2022/12/06 07:09:16;;;;;;;9.23;6.57;;;;;;;9.46;100.00;9348.94;5053020;28;20239;-62
2022/12/06 07:11:43;;;;;;;10.93;5.20;;;;;;;9.62;100.00;8072.78;5052345;28;20189;-63
2022/12/06 07:14:11;;;;;;;12.80;5.80;;;;;;;9.67;100.00;9993.13;5052904;28;20186;-63
2022/12/06 07:16:38;;;;;;;7.20;6.50;;;;;;;9.52;100.00;10630.06;5053266;28;20584;-63
2022/12/06 07:19:05;;;;;;;11.00;6.40;;;;;;;9.53;100.00;8390.81;5052827;28;20300;-63
2022/12/06 07:21:33;;;;;;;10.67;7.13;;;;;;;9.68;100.00;8073.78;5052696;28;20193;-63
2022/12/06 07:24:00;;;;;;;13.43;5.83;;;;;;;9.57;100.00;7752.09;5053034;28;20197;-63
2022/12/06 07:26:28;;;;;;;13.57;5.93;;;;;;;9.44;100.00;7749.78;5053040;28;20181;-61
2022/12/06 07:28:56;;;;;;;4.30;4.10;;;;;;;9.45;100.00;6151.84;5053166;28;20259;-60
2022/12/06 07:31:26;;;;;;;4.23;3.93;;;;;;;9.45;100.00;5193.34;5052867;28;20186;-60
2022/12/06 07:33:55;;;;;;;8.93;4.77;;;;;;;9.54;100.00;4555.66;5052335;28;20664;-60
2022/12/06 07:36:23;;;;;;;9.03;5.17;;;;;;;9.64;100.00;5195.88;5052906;28;20193;-61
2022/12/06 07:38:51;;;;;;;12.77;5.67;;;;;;;9.77;100.00;6796.13;5052411;28;20205;-61
2022/12/06 07:46:50;;;;;;;7.10;4.80;;;;;;;9.54;100.00;7751.47;5052216;28;20192;-61
2022/12/06 07:49:20;;;;;;;8.10;5.27;;;;;;;9.46;100.00;6152.00;5052393;28;20233;-61
2022/12/06 07:51:47;;;;;;;7.90;4.80;;;;;;;9.51;100.00;5513.66;5071385;28;20283;-60
2022/12/06 07:54:15;;;;;;;10.03;5.10;;;;;;;9.50;100.00;4555.13;5072397;28;20578;-59
2022/12/06 07:56:43;;;;;;;5.03;4.40;;;;;;;9.39;100.00;4234.41;5072583;28;20201;-60
2022/12/06 07:59:10;;;;;;;5.77;5.17;;;;;;;9.60;100.00;3598.13;5072043;28;20220;-60
2022/12/06 08:01:37;;;;;;;4.93;4.67;;;;;;;9.67;100.00;4557.22;5062369;28;20284;-62
2022/12/06 08:04:06;;;;;;;6.33;5.73;;;;;;;9.75;100.00;6475.97;5055812;28;20204;-61
2022/12/06 08:06:33;;;;;;;7.43;5.07;;;;;;;9.78;100.00;7116.06;5071371;28;20287;-61
2022/12/06 08:09:00;;;;;;;8.13;5.37;;;;;;;9.82;100.00;9356.19;5054764;28;20202;-60
2022/12/06 08:11:27;;;;;;;7.63;5.33;;;;;;;10.00;100.00;9680.13;5052335;28;20213;-61
2022/12/06 08:13:54;;;;;;;4.53;3.30;;;;;;;9.80;100.00;14800.97;5052530;28;20634;-62
2022/12/06 08:16:22;;;;;;;5.13;3.87;;;;;;;9.81;100.00;13839.53;5051526;28;20188;-62
2022/12/06 08:18:48;;;;;;;6.67;3.70;;;;;;;9.78;100.00;12236.81;5051811;28;20212;-61
2022/12/06 08:21:17;;;;;;;7.07;4.93;;;;;;;9.79;100.00;10636.03;5051816;28;20186;-61
2022/12/06 08:23:44;;;;;;;6.60;4.53;;;;;;;9.81;100.00;10956.56;5052062;28;20625;-61
2022/12/06 08:26:13;;;;;;;6.27;4.57;;;;;;;10.00;100.00;13524.28;5055109;28;20185;-61
2022/12/06 08:28:42;;;;;;;5.67;5.17;;;;;;;10.04;100.00;15770.06;5056804;28;20208;-61
2022/12/06 08:31:10;;;;;;;5.70;4.27;;;;;;;10.02;100.00;18015.75;5052110;28;20648;-62
2022/12/06 08:33:37;;;;;;;5.97;4.87;;;;;;;9.98;100.00;17693.25;5051739;28;20185;-61
2022/12/06 08:36:07;;;;;;;9.17;4.80;;;;;;;9.97;100.00;15447.16;5057558;28;20205;-61
2022/12/06 08:38:36;;;;;;;4.53;4.00;;;;;;;9.93;100.00;16408.16;5071974;28;20646;-61
2022/12/06 08:41:05;;;;;;;8.33;4.67;;;;;;;10.04;100.00;18337.28;5071997;28;20571;-61
2022/12/06 08:43:32;;;;;;;4.57;4.17;;;;;;;9.97;100.00;17051.13;5072031;28;20189;-62
2022/12/06 08:45:59;;;;;;;3.93;3.40;;;;;;;10.09;100.00;19623.50;5071311;28;20193;-60
2022/12/06 08:48:27;;;;;;;5.67;3.90;;;;;;;10.18;100.00;22519.19;5071458;28;20185;-61
2022/12/06 08:50:54;;;;;;;4.23;3.10;;;;;;;10.20;100.00;25736.72;5071100;28;20231;-60
2022/12/06 08:53:20;;;;;;;8.27;3.70;;;;;;;10.31;100.00;26063.59;5071314;28;20189;-61
2022/12/06 08:55:56;;;;;;;4.90;2.77;;;;;;;10.33;100.00;29285.63;5071485;28;20193;-62
2022/12/06 08:58:23;;;;;;;3.67;2.30;;;;;;;10.23;100.00;30246.72;5062912;28;20204;-61
2022/12/06 09:00:49;;;;;;;3.17;2.60;;;;;;;10.27;100.00;28315.94;5051566;28;20236;-62
2022/12/06 09:03:17;;;;;;;7.20;3.53;;;;;;;10.41;100.00;29934.50;5051125;28;20181;-61
2022/12/06 09:05:43;;;;;;;8.73;3.63;;;;;;;10.23;100.00;29924.75;5051498;28;20192;-60
2022/12/06 09:08:10;;;;;;;6.23;2.83;;;;;;;10.21;100.00;32180.09;5062570;28;20219;-61
2022/12/06 09:10:38;;;;;;;2.53;2.43;;;;;;;10.37;100.00;32834.50;5071660;28;20193;-61
2022/12/06 09:13:06;;;;;;;10.37;2.83;;;;;;;10.36;100.00;30898.88;5071828;28;20692;-61
2022/12/06 09:15:33;;;;;;;8.07;3.17;;;;;;;10.29;100.00;30894.97;5071551;28;20180;-61
2022/12/06 09:18:00;;;;;;;5.50;3.90;;;;;;;10.49;100.00;31228.63;5071460;28;20493;-61
2022/12/06 09:20:27;;;;;;;6.37;3.13;;;;;;;10.60;100.00;31879.47;5071416;28;20205;-61
2022/12/06 09:22:54;;;;;;;6.40;2.70;;;;;;;10.47;100.00;33485.75;5071451;28;20185;-62
2022/12/06 09:25:21;;;;;;;2.43;2.27;;;;;;;10.42;100.00;33159.78;5071018;28;20189;-62
2022/12/06 09:27:51;;;;;;;5.50;1.60;;;;;;;10.19;100.00;25736.25;5071453;28;20596;-61
2022/12/06 09:30:19;;;;;;;2.07;1.97;;;;;;;10.25;100.00;24451.94;5071273;28;20181;-61
2022/12/06 09:32:47;;;;;;;2.40;2.20;;;;;;;10.11;100.00;23159.22;5071090;28;20188;-62
2022/12/06 09:35:14;;;;;;;2.10;2.00;;;;;;;10.18;100.00;21554.78;5073437;28;20187;-61
2022/12/06 09:37:41;;;;;;;2.37;2.17;;;;;;;10.24;100.00;20914.41;5075012;28;20227;-60
2022/12/06 09:40:17;;;;;;;10.63;3.20;;;;;;;10.34;100.00;22847.28;5076000;28;20205;-61
2022/12/06 09:42:59;;;;;;;8.07;3.40;;;;;;;10.37;100.00;25101.00;5075171;28;20211;-61
2022/12/06 09:45:53;;;;;;;2.67;2.47;;;;;;;10.27;100.00;25096.16;5073162;28;20250;-61
2022/12/06 09:48:55;;;;;;;1.73;1.67;;;;;;;10.05;100.00;19943.38;5055069;28;20655;-60
2022/12/06 09:51:35;;;;;;;2.63;2.40;;;;;;;9.99;100.00;15768.50;5055310;28;20195;-62
2022/12/06 09:54:18;;;;;;;2.30;1.90;;;;;;;9.89;100.00;13200.81;5055162;28;20659;-61
2022/12/06 09:56:51;;;;;;;3.43;3.13;;;;;;;10.00;100.00;10961.06;5054626;28;20185;-63
2022/12/06 09:59:29;;;;;;;2.20;2.00;;;;;;;10.14;100.00;12886.81;5054961;28;20227;-62
2022/12/06 10:02:17;;;;;;;4.53;3.37;;;;;;;10.18;100.00;15132.75;5054711;28;20190;-61
2022/12/06 10:05:04;;;;;;;2.87;2.30;;;;;;;10.27;100.00;16098.09;5054692;28;20208;-63
2022/12/06 10:07:38;;;;;;;12.50;3.97;;;;;;;10.21;100.00;18985.41;5054586;28;20601;-61
2022/12/06 10:10:19;;;;;;;5.30;3.23;;;;;;;10.22;100.00;20913.59;5057220;28;20201;-61
2022/12/06 10:12:58;;;;;;;9.37;5.00;;;;;;;10.38;100.00;18670.31;5071807;28;20197;-61
2022/12/06 10:15:34;;;;;;;4.20;2.77;;;;;;;10.42;100.00;23172.59;5072146;28;20211;-63
2022/12/06 10:18:15;;;;;;;3.00;2.77;;;;;;;10.31;100.00;24454.41;5071564;28;20184;-61
2022/12/06 10:20:50;;;;;;;3.40;2.53;;;;;;;10.12;100.00;18982.31;5071798;28;20235;-62
2022/12/06 10:23:32;;;;;;;4.47;4.07;;;;;;;10.23;100.00;18665.13;5074233;28;20191;-61
2022/12/06 10:26:12;;;;;;;6.33;4.07;;;;;;;10.29;100.00;18346.09;5061888;28;20212;-63
2022/12/06 10:28:44;;;;;;;4.00;3.30;;;;;;;10.38;100.00;19634.34;5054659;28;20205;-62
2022/12/06 10:31:22;;;;;;;5.37;2.87;;;;;;;10.45;100.00;20922.47;5066612;28;20197;-61
2022/12/06 10:33:56;;;;;;;6.50;3.30;;;;;;;10.39;100.00;20598.88;5068931;28;20204;-62
2022/12/06 10:36:38;;;;;;;4.53;3.17;;;;;;;10.49;100.00;19317.06;5070339;28;20223;-62
2022/12/06 10:39:14;;;;;;;2.67;2.43;;;;;;;10.35;100.00;18669.22;5072488;28;20279;-63
2022/12/06 10:41:46;;;;;;;5.97;3.10;;;;;;;10.29;100.00;15136.06;5072097;28;20555;-62
2022/12/06 10:44:20;;;;;;;13.47;2.53;;;;;;;10.29;100.00;10967.66;5073487;28;20201;-62
2022/12/06 10:47:03;;;;;;;3.30;2.17;;;;;;;10.28;100.00;11287.88;5073221;28;20645;-62
2022/12/06 10:49:43;;;;;;;4.40;2.60;;;;;;;10.39;100.00;11611.03;5073530;28;20236;-61
2022/12/06 10:52:25;;;;;;;3.23;2.20;;;;;;;10.40;100.00;25424.28;5073140;28;20223;-63
2022/12/06 10:55:02;;;;;;;5.20;2.50;;;;;;;10.35;100.00;36060.47;5057254;28;20197;-62
2022/12/06 10:57:36;;;;;;;2.47;2.27;;;;;;;10.26;100.00;36055.00;5068508;28;20235;-63
2022/12/06 11:00:06;;;;;;;3.03;1.90;;;;;;;10.21;100.00;34115.38;5070314;28;20208;-62
2022/12/06 11:02:40;;;;;;;3.03;2.03;;;;;;;9.93;100.00;29586.66;5072665;28;20203;-61
2022/12/06 11:05:18;;;;;;;2.27;1.83;;;;;;;10.16;100.00;27666.22;5070898;28;20184;-62
2022/12/06 11:07:50;;;;;;;4.13;2.30;;;;;;;10.13;100.00;21231.41;5071216;28;20192;-61
2022/12/06 11:10:21;;;;;;;5.83;2.10;;;;;;;10.10;100.00;18660.47;5072856;28;20189;-61
2022/12/06 11:12:54;;;;;;;6.23;3.13;;;;;;;10.19;100.00;17379.22;5070680;28;20197;-61
2022/12/06 11:15:25;;;;;;;6.20;2.40;;;;;;;10.24;100.00;21235.59;5072700;28;20219;-61
2022/12/06 11:17:56;;;;;;;2.13;2.03;;;;;;;10.24;100.00;25095.00;5073340;28;20293;-61
2022/12/06 11:20:29;;;;;;;2.00;1.90;;;;;;;10.22;100.00;25737.69;5072817;28;20214;-61
2022/12/06 11:23:08;;;;;;;1.67;1.57;;;;;;;10.10;100.00;27985.16;5073181;28;20185;-61
2022/12/06 11:25:43;;;;;;;6.03;2.80;;;;;;;10.15;100.00;28631.56;5069803;28;20290;-61
2022/12/06 11:28:22;;;;;;;2.53;2.33;;;;;;;10.15;100.00;30242.34;5068279;28;20598;-62
2022/12/06 11:30:54;;;;;;;3.53;3.20;;;;;;;10.32;100.00;31541.47;5070843;28;20188;-62
2022/12/06 11:33:31;;;;;;;6.13;4.00;;;;;;;10.40;100.00;34772.22;5068567;28;20210;-61
2022/12/06 11:36:05;;;;;;;1.60;1.50;;;;;;;10.41;100.00;42529.16;5069789;28;20205;-61
2022/12/06 11:38:33;;;;;;;6.37;2.87;;;;;;;10.41;100.00;47710.03;5072539;28;20188;-61
2022/12/06 11:41:05;;;;;;;4.30;2.90;;;;;;;10.40;100.00;43822.84;5072177;28;20209;-62
2022/12/06 11:43:34;;;;;;;11.20;2.90;;;;;;;10.41;100.00;43176.72;5068454;28;20193;-61
2022/12/06 11:46:05;;;;;;;1.23;1.20;;;;;;;10.48;100.00;46744.16;5070877;28;20231;-61
2022/12/06 11:48:34;;;;;;;3.43;2.70;;;;;;;10.42;100.00;46415.28;5071850;28;20181;-61
2022/12/06 11:51:03;;;;;;;12.33;3.73;;;;;;;10.49;100.00;47717.13;5069058;28;20220;-61
2022/12/06 11:53:35;;;;;;;2.63;2.30;;;;;;;10.27;100.00;43812.84;5071607;28;20222;-61
2022/12/06 11:56:08;;;;;;;2.53;2.33;;;;;;;10.35;100.00;38967.81;5072376;28;20191;-62
2022/12/06 11:58:42;;;;;;;4.00;3.60;;;;;;;10.31;100.00;38319.13;5072007;28;20196;-61
2022/12/06 12:01:13;;;;;;;6.80;3.10;;;;;;;10.45;100.00;38328.31;5071920;28;20248;-61
2022/12/06 12:03:42;;;;;;;6.90;4.60;;;;;;;10.46;100.00;40915.78;5071488;28;20271;-61
2022/12/06 12:06:18;;;;;;;4.57;3.10;;;;;;;10.32;100.00;44788.13;5072009;28;20238;-62
2022/12/06 12:08:58;;;;;;;5.50;3.70;;;;;;;10.54;100.00;49342.31;5071915;28;20190;-62
2022/12/06 12:11:29;;;;;;;11.53;5.60;;;;;;;10.52;100.00;50313.53;5072773;28;20608;-61
2022/12/06 12:14:00;;;;;;;7.23;5.47;;;;;;;10.46;100.00;48362.84;5072200;28;20215;-61